Aviation Digital Data Service (ADDS)

Output produced by METARs form (2211 UTC 23 March 2017)
found at http://aviationweather.gov/adds/metars/
 
KEWR 231942Z 2320/2424 31010KT P6SM SKC 
     FM240000 VRB04KT P6SM SCT150 SCT250 
     FM241200 20006KT P6SM BKN120 
     FM241400 21011KT P6SM OVC080 
     PROB30 2415/2418 6SM -RAPL BKN050 
     FM241800 21012KT P6SM BKN040 WS020/23040KT